createdAt,value
2023-01-18T00:00:32.180Z,30.47
2023-01-18T00:02:59.768Z,35.07
2023-01-18T00:05:27.170Z,34.03
2023-01-18T00:07:54.472Z,32.47
2023-01-18T00:10:22.484Z,31.63
2023-01-18T00:12:50.055Z,29.43
2023-01-18T00:15:17.465Z,29.77
2023-01-18T00:17:53.525Z,33.10
2023-01-18T00:20:21.973Z,33.33
2023-01-18T00:22:50.746Z,32.43
2023-01-18T00:25:18.517Z,30.20
2023-01-18T00:27:47.433Z,32.43
2023-01-18T00:30:15.227Z,31.47
2023-01-18T00:32:42.390Z,33.10
2023-01-18T00:35:09.987Z,33.17
2023-01-18T00:37:37.660Z,36.40
2023-01-18T00:40:05.843Z,39.43
2023-01-18T00:42:52.093Z,38.87
2023-01-18T00:45:19.308Z,38.90
2023-01-18T00:47:46.505Z,37.43
2023-01-18T00:50:13.860Z,37.17
2023-01-18T00:52:46.660Z,44.17
2023-01-18T00:55:14.706Z,43.00
2023-01-18T00:57:42.107Z,40.57
2023-01-18T01:00:11.203Z,33.73
2023-01-18T01:02:42.463Z,33.20
2023-01-18T01:05:38.651Z,26.17
2023-01-18T01:08:06.729Z,25.03
2023-01-18T01:10:34.752Z,25.40
2023-01-18T01:13:20.477Z,24.73
2023-01-18T01:16:06.662Z,26.97
2023-01-18T01:18:52.751Z,26.17
2023-01-18T01:21:38.984Z,26.73
2023-01-18T01:24:24.930Z,26.17
2023-01-18T01:26:52.125Z,28.70
2023-01-18T01:29:19.766Z,29.27
2023-01-18T01:31:46.989Z,27.30
2023-01-18T01:34:14.393Z,26.10
2023-01-18T01:36:41.561Z,27.13
2023-01-18T01:39:11.030Z,27.17
2023-01-18T01:41:38.246Z,26.40
2023-01-18T01:44:20.772Z,25.63
2023-01-18T01:46:50.482Z,24.07
2023-01-18T01:49:21.994Z,25.87
2023-01-18T01:51:53.157Z,25.30
2023-01-18T01:54:29.655Z,23.30
2023-01-18T01:56:58.640Z,22.53
2023-01-18T01:59:25.898Z,23.93
2023-01-18T02:01:53.192Z,22.53
2023-01-18T02:04:20.507Z,22.57
2023-01-18T02:06:47.720Z,22.90
2023-01-18T02:09:16.132Z,22.50
2023-01-18T02:11:43.964Z,21.50
2023-01-18T02:14:16.592Z,21.20
2023-01-18T02:16:58.909Z,22.17
2023-01-18T02:19:44.891Z,21.80
2023-01-18T02:22:15.144Z,21.40
2023-01-18T02:25:01.090Z,20.57
2023-01-18T02:27:54.549Z,20.50
2023-01-18T02:30:30.422Z,21.30
2023-01-18T02:33:00.834Z,23.60
2023-01-18T02:35:31.143Z,23.23
2023-01-18T02:38:18.566Z,22.70
2023-01-18T02:40:45.815Z,21.60
2023-01-18T02:43:32.434Z,23.63
2023-01-18T02:46:19.206Z,22.60
2023-01-18T02:48:48.264Z,23.00
2023-01-18T02:51:16.695Z,22.50
2023-01-18T02:53:45.208Z,21.90
2023-01-18T02:56:15.411Z,23.87
2023-01-18T02:58:47.899Z,23.80
2023-01-18T03:01:26.911Z,22.80
2023-01-18T03:03:57.856Z,22.83
2023-01-18T03:06:27.003Z,22.03
2023-01-18T03:08:54.822Z,22.53
2023-01-18T03:11:34.979Z,23.27
2023-01-18T03:14:21.060Z,22.53
2023-01-18T03:16:59.392Z,21.10
2023-01-18T03:19:55.786Z,20.53
2023-01-18T03:22:43.382Z,20.00
2023-01-18T03:25:13.090Z,22.10
2023-01-18T03:28:00.366Z,22.23
2023-01-18T03:30:47.109Z,21.23
2023-01-18T03:33:33.210Z,21.43
2023-01-18T03:36:01.409Z,20.57
2023-01-18T03:38:29.146Z,19.53
2023-01-18T03:40:56.539Z,20.43
2023-01-18T03:43:26.378Z,21.47
2023-01-18T03:45:54.942Z,20.53
2023-01-18T03:48:22.418Z,20.03
2023-01-18T03:51:15.603Z,20.37
2023-01-18T03:54:21.410Z,18.80
2023-01-18T03:56:51.730Z,18.73
2023-01-18T03:59:19.025Z,20.10
2023-01-18T04:01:48.255Z,20.87
2023-01-18T04:04:15.567Z,19.77
2023-01-18T04:06:42.886Z,20.80
2023-01-18T04:09:11.807Z,19.90
2023-01-18T04:11:39.151Z,19.23
2023-01-18T04:14:06.329Z,19.93
2023-01-18T04:16:33.690Z,18.33
2023-01-18T04:19:00.918Z,17.40
2023-01-18T04:21:28.177Z,17.43
2023-01-18T04:23:55.504Z,17.63
2023-01-18T04:26:22.821Z,18.40
2023-01-18T04:28:49.962Z,18.03
2023-01-18T04:31:17.153Z,18.00
2023-01-18T04:33:44.364Z,17.37
2023-01-18T04:36:11.535Z,16.97
2023-01-18T04:38:38.683Z,18.10
2023-01-18T04:41:06.187Z,18.70
2023-01-18T04:43:33.378Z,18.57
2023-01-18T04:46:00.599Z,17.30
2023-01-18T04:48:27.788Z,16.13
2023-01-18T04:50:55.568Z,17.13
2023-01-18T04:53:22.857Z,16.87
2023-01-18T04:55:50.048Z,16.03
2023-01-18T04:58:17.216Z,15.77
2023-01-18T05:00:44.790Z,16.13
2023-01-18T05:03:12.893Z,16.00
2023-01-18T05:05:40.461Z,16.03
2023-01-18T05:08:07.619Z,14.77
2023-01-18T05:10:34.758Z,14.00
2023-01-18T05:13:02.303Z,15.00
2023-01-18T05:15:29.668Z,14.53
2023-01-18T05:17:57.080Z,14.20
2023-01-18T05:20:24.317Z,13.23
2023-01-18T05:22:51.497Z,15.13
2023-01-18T05:25:18.698Z,14.23
2023-01-18T05:27:45.969Z,14.67
2023-01-18T05:30:14.031Z,14.77
2023-01-18T05:32:41.160Z,15.77
2023-01-18T05:35:08.477Z,17.20
2023-01-18T05:37:35.688Z,16.97
2023-01-18T05:40:02.877Z,14.00
2023-01-18T05:42:30.282Z,13.73
2023-01-18T05:44:57.435Z,13.97
2023-01-18T05:47:24.560Z,13.40
2023-01-18T05:49:51.836Z,13.97
2023-01-18T05:52:19.048Z,13.00
2023-01-18T05:54:46.296Z,12.63
2023-01-18T05:57:13.716Z,11.57
2023-01-18T05:59:40.950Z,13.37
2023-01-18T06:02:08.584Z,11.97
2023-01-18T06:04:35.896Z,13.40
2023-01-18T06:07:03.139Z,11.80
2023-01-18T06:09:30.447Z,12.73
2023-01-18T06:11:57.652Z,12.77
2023-01-18T06:14:24.792Z,13.37
2023-01-18T06:16:51.960Z,12.17
2023-01-18T06:19:19.195Z,12.00
2023-01-18T06:21:47.004Z,12.37
2023-01-18T06:24:14.466Z,11.93
2023-01-18T06:26:41.670Z,12.30
2023-01-18T06:29:09.103Z,11.83
2023-01-18T06:31:36.380Z,12.90
2023-01-18T06:34:09.348Z,13.07
2023-01-18T06:36:40.088Z,12.73
2023-01-18T06:39:07.589Z,13.20
2023-01-18T06:41:34.804Z,12.33
2023-01-18T06:44:02.036Z,13.10
2023-01-18T06:46:29.231Z,12.87
2023-01-18T06:48:56.401Z,13.77
2023-01-18T06:51:24.146Z,13.57
2023-01-18T06:53:51.289Z,12.33
2023-01-18T06:56:18.466Z,13.53
2023-01-18T06:58:45.943Z,13.67
2023-01-18T07:01:13.258Z,14.00
2023-01-18T07:03:40.931Z,13.77
2023-01-18T07:06:08.184Z,13.83
2023-01-18T07:08:40.246Z,13.10
2023-01-18T07:11:08.478Z,12.73
2023-01-18T07:13:35.966Z,13.83
2023-01-18T07:16:03.265Z,13.63
2023-01-18T07:18:30.881Z,14.10
2023-01-18T07:20:59.365Z,14.77
2023-01-18T07:23:26.840Z,15.07
2023-01-18T07:26:07.740Z,13.23
2023-01-18T07:28:35.279Z,14.40
2023-01-18T07:31:03.082Z,13.33
2023-01-18T07:33:30.564Z,14.83
2023-01-18T07:35:58.637Z,13.97
2023-01-18T07:38:25.809Z,14.07
2023-01-18T07:40:58.179Z,14.30
2023-01-18T07:43:25.377Z,13.30
2023-01-18T07:45:57.840Z,13.10
2023-01-18T07:48:25.849Z,13.43
2023-01-18T07:50:55.590Z,13.50
2023-01-18T07:53:23.240Z,13.20
2023-01-18T07:55:50.986Z,13.53
2023-01-18T07:58:18.928Z,14.30
2023-01-18T08:00:46.698Z,13.67
2023-01-18T08:03:15.066Z,14.27
2023-01-18T08:05:45.651Z,14.23
2023-01-18T08:08:14.132Z,14.53
2023-01-18T08:10:42.035Z,14.60
2023-01-18T08:13:10.221Z,12.13
2023-01-18T08:15:40.754Z,12.37
2023-01-18T08:18:09.101Z,13.27
2023-01-18T08:20:36.469Z,13.60
2023-01-18T08:23:04.563Z,11.77
2023-01-18T08:25:33.517Z,12.40
2023-01-18T08:28:02.230Z,12.50
2023-01-18T08:30:31.322Z,13.73
2023-01-18T08:32:59.846Z,12.67
2023-01-18T08:35:28.469Z,14.50
2023-01-18T08:37:55.694Z,17.00
2023-01-18T08:40:23.555Z,17.13
2023-01-18T08:42:51.181Z,16.30
2023-01-18T08:45:18.380Z,16.73
2023-01-18T08:47:45.566Z,17.30
2023-01-18T08:50:12.827Z,16.60
2023-01-18T08:52:39.983Z,15.20
2023-01-18T08:55:07.463Z,15.23
2023-01-18T08:57:34.723Z,15.27
2023-01-18T09:00:04.320Z,15.77
2023-01-18T09:02:31.514Z,15.97
2023-01-18T09:04:58.823Z,15.73
2023-01-18T09:07:26.007Z,15.40
2023-01-18T09:09:53.314Z,14.80
2023-01-18T09:12:20.495Z,14.67
2023-01-18T09:14:47.712Z,16.27
2023-01-18T09:17:14.937Z,16.87
2023-01-18T09:19:42.144Z,18.23
2023-01-18T09:22:09.580Z,16.83
2023-01-18T09:24:37.034Z,18.17
2023-01-18T09:27:07.503Z,18.87
2023-01-18T09:29:34.779Z,17.90
2023-01-18T09:32:02.126Z,17.77
2023-01-18T09:34:29.355Z,18.23
2023-01-18T09:36:56.523Z,18.23
2023-01-18T09:39:23.826Z,17.97
2023-01-18T09:41:52.904Z,17.97
2023-01-18T09:44:34.856Z,18.90
2023-01-18T09:47:22.208Z,17.43
2023-01-18T09:49:56.791Z,17.23
2023-01-18T09:52:26.765Z,17.07
2023-01-18T09:54:57.171Z,17.37
2023-01-18T09:57:24.328Z,17.20
2023-01-18T09:59:54.380Z,17.27
2023-01-18T10:02:23.896Z,17.27
2023-01-18T10:04:59.718Z,17.33
2023-01-18T10:07:28.081Z,17.57
2023-01-18T10:09:56.212Z,16.57
2023-01-18T10:12:41.812Z,15.33
2023-01-18T10:15:20.409Z,16.60
2023-01-18T10:17:48.371Z,15.00
2023-01-18T10:20:28.286Z,15.23
2023-01-18T10:23:04.084Z,14.80
2023-01-18T10:25:43.056Z,15.17
2023-01-18T10:28:45.204Z,14.37
2023-01-18T10:31:35.617Z,14.77
2023-01-18T10:34:04.446Z,15.17
2023-01-18T10:36:34.018Z,15.20
2023-01-18T10:39:02.654Z,16.67
2023-01-18T10:41:33.999Z,17.43
2023-01-18T10:44:01.641Z,17.17
2023-01-18T10:46:29.128Z,15.43
2023-01-18T10:48:59.723Z,15.53
2023-01-18T10:51:37.671Z,16.00
2023-01-18T10:54:24.784Z,17.07
2023-01-18T10:57:02.624Z,15.87
2023-01-18T10:59:33.920Z,15.43
2023-01-18T11:02:01.379Z,16.40
2023-01-18T11:04:29.761Z,16.57
2023-01-18T11:06:58.275Z,17.23
2023-01-18T11:09:43.744Z,16.87
2023-01-18T11:12:35.038Z,16.87
2023-01-18T11:15:14.550Z,17.23
2023-01-18T11:17:42.171Z,17.40
2023-01-18T11:20:16.295Z,20.60
2023-01-18T11:22:58.734Z,24.93
2023-01-18T11:25:27.628Z,25.27
2023-01-18T11:28:01.722Z,27.10
2023-01-18T11:30:29.126Z,27.63
2023-01-18T11:33:00.194Z,30.33
2023-01-18T11:35:35.319Z,29.07
2023-01-18T11:38:03.272Z,28.80
2023-01-18T11:40:31.358Z,32.40
2023-01-18T11:43:03.729Z,31.83
2023-01-18T11:45:30.955Z,34.00
2023-01-18T11:48:06.157Z,32.07
2023-01-18T11:50:43.209Z,31.20
2023-01-18T11:53:13.603Z,30.03
2023-01-18T11:55:56.462Z,29.97
2023-01-18T11:58:28.569Z,29.73
2023-01-18T12:01:14.132Z,27.67
2023-01-18T12:03:57.232Z,28.47
2023-01-18T12:06:30.402Z,26.33
2023-01-18T12:09:04.863Z,26.33
2023-01-18T12:11:38.127Z,26.20
2023-01-18T12:14:06.230Z,25.67
2023-01-18T12:16:41.593Z,25.80
2023-01-18T12:19:12.285Z,28.63
2023-01-18T12:21:45.796Z,28.33
2023-01-18T12:24:31.223Z,26.93
2023-01-18T12:26:59.860Z,25.63
2023-01-18T12:29:37.940Z,25.73
2023-01-18T12:32:06.085Z,24.30
2023-01-18T12:34:33.245Z,24.77
2023-01-18T12:37:13.596Z,25.80
2023-01-18T12:39:43.604Z,24.63
2023-01-18T12:42:16.776Z,25.80
2023-01-18T12:44:44.345Z,23.50
2023-01-18T12:47:14.265Z,24.70
2023-01-18T12:49:43.538Z,24.37
2023-01-18T12:52:18.804Z,23.33
2023-01-18T12:54:48.990Z,23.97
2023-01-18T12:57:17.240Z,23.23
2023-01-18T12:59:44.524Z,24.33
2023-01-18T13:02:32.005Z,22.60
2023-01-18T13:05:05.119Z,24.07
2023-01-18T13:07:38.226Z,22.70
2023-01-18T13:10:06.878Z,24.37
2023-01-18T13:12:34.346Z,23.97
2023-01-18T13:15:16.204Z,23.50
2023-01-18T13:17:51.126Z,23.40
2023-01-18T13:20:20.678Z,25.17
2023-01-18T13:23:09.389Z,25.73
2023-01-18T13:25:39.566Z,27.80
2023-01-18T13:28:16.708Z,26.00
2023-01-18T13:30:50.185Z,26.40
2023-01-18T13:33:22.241Z,23.77
2023-01-18T13:35:50.819Z,23.73
2023-01-18T13:38:19.522Z,22.60
2023-01-18T13:41:11.524Z,22.60
2023-01-18T13:43:40.340Z,23.43
2023-01-18T13:46:07.539Z,22.60
2023-01-18T13:48:57.709Z,23.73
2023-01-18T13:51:37.327Z,22.97
2023-01-18T13:54:05.006Z,23.23
2023-01-18T13:56:33.430Z,22.17
2023-01-18T13:59:12.919Z,22.60
2023-01-18T14:01:43.193Z,23.00
2023-01-18T14:04:23.825Z,25.40
2023-01-18T14:06:51.852Z,24.97
2023-01-18T14:09:19.780Z,23.17
2023-01-18T14:11:57.064Z,22.97
2023-01-18T14:14:26.407Z,23.20
2023-01-18T14:17:13.851Z,24.77
2023-01-18T14:19:55.442Z,24.57
2023-01-18T14:22:34.817Z,23.43
2023-01-18T14:25:04.850Z,23.93
2023-01-18T14:27:36.178Z,22.97
2023-01-18T14:30:27.313Z,25.37
2023-01-18T14:33:08.004Z,23.77
2023-01-18T14:35:35.179Z,23.97
2023-01-18T14:38:18.913Z,24.97
2023-01-18T14:40:47.765Z,28.00
2023-01-18T14:43:35.205Z,26.73
2023-01-18T14:46:02.430Z,28.30
2023-01-18T14:48:30.850Z,27.30
2023-01-18T14:50:59.285Z,28.13
2023-01-18T14:53:29.410Z,28.20
2023-01-18T14:56:02.901Z,26.10
2023-01-18T14:58:37.171Z,26.67
2023-01-18T15:01:04.964Z,27.50
2023-01-18T15:03:32.203Z,29.47
2023-01-18T15:06:12.585Z,29.23
2023-01-18T15:08:40.320Z,29.80
2023-01-18T15:11:07.922Z,29.13
2023-01-18T15:13:41.578Z,30.77
2023-01-18T15:16:09.652Z,29.17
2023-01-18T15:18:36.969Z,30.27
2023-01-18T15:21:06.294Z,27.93
2023-01-18T15:23:35.655Z,30.13
2023-01-18T15:26:02.991Z,28.23
2023-01-18T15:28:31.589Z,29.17
2023-01-18T15:30:58.826Z,33.87
2023-01-18T15:33:27.124Z,33.03
2023-01-18T15:35:58.966Z,29.90
2023-01-18T15:38:26.238Z,31.27
2023-01-18T15:41:05.055Z,32.13
2023-01-18T15:43:36.655Z,33.17
2023-01-18T15:46:07.667Z,27.57
2023-01-18T15:48:38.351Z,23.80
2023-01-18T15:51:07.834Z,25.20
2023-01-18T15:53:46.140Z,27.37
2023-01-18T15:56:17.556Z,28.60
2023-01-18T15:58:55.689Z,27.63
2023-01-18T16:01:25.015Z,26.10
2023-01-18T16:03:52.337Z,25.57
2023-01-18T16:06:22.824Z,26.80
2023-01-18T16:08:57.224Z,27.57
2023-01-18T16:11:32.023Z,36.67
2023-01-18T16:14:00.425Z,38.50
2023-01-18T16:16:28.177Z,34.23
2023-01-18T16:19:13.788Z,33.30
2023-01-18T16:21:41.796Z,33.83
2023-01-18T16:24:15.986Z,26.93
2023-01-18T16:26:44.057Z,25.10
2023-01-18T16:29:11.983Z,26.07
2023-01-18T16:31:40.783Z,23.87
2023-01-18T16:34:26.912Z,24.20
2023-01-18T16:36:54.955Z,23.40
2023-01-18T16:39:24.634Z,24.13
2023-01-18T16:41:54.017Z,23.73
2023-01-18T16:44:21.910Z,23.17
2023-01-18T16:46:49.645Z,24.13
2023-01-18T16:49:17.266Z,23.90
2023-01-18T16:51:44.525Z,23.43
2023-01-18T16:54:11.802Z,33.77
2023-01-18T16:56:40.044Z,26.53
2023-01-18T16:59:22.959Z,30.87
2023-01-18T17:01:51.575Z,29.50
2023-01-18T17:04:19.351Z,27.73
2023-01-18T17:06:46.825Z,32.53
2023-01-18T17:09:24.738Z,44.17
2023-01-18T17:11:52.643Z,39.30
2023-01-18T17:14:20.736Z,32.50
2023-01-18T17:16:49.234Z,30.43
2023-01-18T17:19:18.028Z,32.27
2023-01-18T17:21:47.027Z,35.23
2023-01-18T17:24:15.679Z,52.87
2023-01-18T17:26:43.483Z,61.43
2023-01-18T17:29:17.355Z,65.97
2023-01-18T17:31:52.196Z,78.87
2023-01-18T17:34:28.121Z,103.77
2023-01-18T17:36:57.848Z,116.17
2023-01-18T17:39:32.125Z,103.53
2023-01-18T17:42:12.514Z,87.80
2023-01-18T17:44:43.619Z,72.30
2023-01-18T17:47:11.102Z,64.10
2023-01-18T17:49:38.438Z,61.97
2023-01-18T17:52:05.790Z,58.20
2023-01-18T17:54:34.897Z,57.83
2023-01-18T17:57:02.171Z,54.30
2023-01-18T17:59:29.472Z,51.63
2023-01-18T18:01:56.676Z,48.53
2023-01-18T18:04:23.980Z,47.07
2023-01-18T18:06:58.447Z,44.17
2023-01-18T18:09:26.318Z,40.70
2023-01-18T18:11:53.803Z,35.23
2023-01-18T18:14:21.364Z,42.30
2023-01-18T18:16:48.684Z,41.20
2023-01-18T18:19:15.940Z,40.30
2023-01-18T18:21:43.637Z,41.53
2023-01-18T18:24:10.891Z,43.17
2023-01-18T18:26:38.269Z,45.03
2023-01-18T18:29:05.847Z,47.07
2023-01-18T18:31:33.140Z,47.60
2023-01-18T18:34:00.550Z,46.43
2023-01-18T18:36:28.125Z,45.80
2023-01-18T18:38:55.405Z,54.17
2023-01-18T18:41:22.584Z,54.50
2023-01-18T18:43:49.852Z,55.00
2023-01-18T18:46:17.176Z,53.33
2023-01-18T18:48:44.434Z,53.50
2023-01-18T18:51:11.713Z,50.70
2023-01-18T18:53:40.235Z,47.23
2023-01-18T18:56:10.239Z,45.90
2023-01-18T18:58:37.745Z,45.97
2023-01-18T19:01:05.551Z,49.90
2023-01-18T19:03:33.091Z,49.67
2023-01-18T19:06:00.319Z,51.23
2023-01-18T19:08:27.690Z,52.93
2023-01-18T19:10:57.215Z,54.13
2023-01-18T19:13:24.404Z,47.87
2023-01-18T19:15:51.914Z,49.27
2023-01-18T19:18:19.258Z,52.27
2023-01-18T19:20:46.713Z,53.80
2023-01-18T19:23:14.481Z,61.30
2023-01-18T19:25:41.714Z,70.40
2023-01-18T19:28:08.882Z,61.37
2023-01-18T19:30:38.479Z,54.13
2023-01-18T19:33:06.022Z,57.90
2023-01-18T19:35:39.189Z,60.47
2023-01-18T19:38:08.071Z,57.17
2023-01-18T19:40:35.415Z,48.33
2023-01-18T19:43:03.171Z,52.70
2023-01-18T19:45:31.909Z,57.03
2023-01-18T19:48:00.281Z,45.93
2023-01-18T19:50:29.489Z,49.83
2023-01-18T19:52:57.249Z,40.70
2023-01-18T19:55:25.197Z,43.80
2023-01-18T19:57:55.203Z,41.83
2023-01-18T20:00:22.651Z,45.17
2023-01-18T20:02:50.227Z,45.53
2023-01-18T20:05:17.782Z,40.63
2023-01-18T20:07:45.622Z,40.47
2023-01-18T20:10:13.016Z,34.00
2023-01-18T20:12:40.232Z,32.47
2023-01-18T20:15:07.693Z,31.27
2023-01-18T20:17:35.027Z,33.50
2023-01-18T20:20:02.497Z,31.20
2023-01-18T20:22:30.987Z,30.30
2023-01-18T20:24:58.179Z,29.73
2023-01-18T20:27:25.547Z,32.10
2023-01-18T20:29:53.015Z,32.93
2023-01-18T20:32:20.493Z,33.07
2023-01-18T20:34:48.590Z,35.67
2023-01-18T20:37:16.506Z,34.47
2023-01-18T20:39:43.787Z,42.60
2023-01-18T20:42:11.486Z,40.00
2023-01-18T20:44:38.730Z,41.53
2023-01-18T20:47:06.445Z,37.53
2023-01-18T20:49:38.392Z,37.40
2023-01-18T20:52:07.113Z,32.50
2023-01-18T20:54:36.255Z,34.57
2023-01-18T20:57:04.089Z,41.43
2023-01-18T20:59:31.423Z,39.00
2023-01-18T21:01:59.224Z,35.83
2023-01-18T21:04:26.807Z,33.73
2023-01-18T21:06:54.415Z,29.57
2023-01-18T21:09:21.815Z,27.57
2023-01-18T21:11:49.271Z,26.40
2023-01-18T21:14:16.920Z,30.73
2023-01-18T21:16:44.374Z,31.20
2023-01-18T21:19:11.733Z,28.50
2023-01-18T21:21:39.602Z,30.10
2023-01-18T21:24:07.125Z,29.87
2023-01-18T21:26:36.108Z,30.20
2023-01-18T21:29:03.482Z,29.63
2023-01-18T21:31:30.894Z,28.43
2023-01-18T21:33:58.335Z,28.50
2023-01-18T21:36:25.678Z,26.87
2023-01-18T21:38:53.071Z,26.30
2023-01-18T21:41:38.887Z,25.27
2023-01-18T21:44:24.900Z,27.33
2023-01-18T21:46:52.744Z,25.10
2023-01-18T21:50:04.023Z,27.50
2023-01-18T21:52:47.874Z,31.43
2023-01-18T21:55:15.975Z,35.97
2023-01-18T21:57:43.228Z,39.27
2023-01-18T22:00:11.007Z,35.60
2023-01-18T22:02:38.542Z,33.03
2023-01-18T22:05:08.643Z,31.83
2023-01-18T22:07:36.066Z,30.07
2023-01-18T22:10:06.602Z,31.33
2023-01-18T22:12:35.882Z,30.40
2023-01-18T22:15:04.404Z,34.40
2023-01-18T22:17:31.687Z,31.13
2023-01-18T22:19:59.783Z,31.40
2023-01-18T22:22:27.032Z,27.67
2023-01-18T22:24:54.313Z,24.70
2023-01-18T22:27:21.484Z,23.23
2023-01-18T22:29:48.742Z,23.50
2023-01-18T22:32:16.457Z,23.40
2023-01-18T22:34:43.783Z,21.90
2023-01-18T22:37:11.081Z,21.47
2023-01-18T22:39:38.311Z,21.47
2023-01-18T22:42:05.567Z,21.10
2023-01-18T22:44:32.962Z,20.40
2023-01-18T22:47:00.821Z,18.87
2023-01-18T22:49:32.456Z,17.87
2023-01-18T22:51:59.899Z,17.93
2023-01-18T22:54:31.000Z,17.43
2023-01-18T22:56:58.185Z,19.53
2023-01-18T22:59:25.357Z,17.67
2023-01-18T23:01:52.614Z,18.03
2023-01-18T23:04:21.111Z,18.40
2023-01-18T23:06:50.648Z,16.43
2023-01-18T23:09:18.213Z,17.30
2023-01-18T23:11:45.764Z,19.17
2023-01-18T23:14:31.796Z,18.73
2023-01-18T23:17:17.836Z,17.90
2023-01-18T23:19:45.284Z,19.17
2023-01-18T23:22:13.005Z,19.23
2023-01-18T23:24:40.717Z,19.47
2023-01-18T23:27:09.696Z,19.73
2023-01-18T23:29:37.180Z,19.60
2023-01-18T23:32:04.756Z,17.73
2023-01-18T23:34:31.983Z,17.80
2023-01-18T23:36:59.168Z,17.53
2023-01-18T23:39:45.543Z,17.53
2023-01-18T23:42:31.610Z,17.33
2023-01-18T23:45:17.725Z,17.53
2023-01-18T23:48:03.834Z,18.30
2023-01-18T23:50:49.708Z,18.23
2023-01-18T23:53:38.899Z,18.63
2023-01-18T23:56:06.290Z,17.27
2023-01-18T23:58:33.507Z,19.27
